Time;durP1;ratioP1;P1;durP2;ratioP2;P2;SDS_P1;SDS_P2;PMS_P1;PMS_P2;Temp;Humidity;BMP_temperature;BMP_pressure;BME280_temperature;BME280_humidity;BME280_pressure;Samples;Min_cycle;Max_cycle;Signal;HPM_P1;HPM_P2
2021/09/02 00:06:31;;;;;;;;;;;;;;;;;;;;;
2021/09/02 00:10:54;;;;;;;;;;;;;;;;;;;;;
2021/09/02 00:34:37;;;;;;;1999.90;999.90;;;13.90;99.90;;;;;;4991641;28;20459;-89
2021/09/02 00:38:56;;;;;;;1999.90;999.90;;;13.90;99.90;;;;;;5014087;28;20451;-89
2021/09/02 00:41:53;;;;;;;1999.90;999.90;;;14.00;99.90;;;;;;4941926;29;20467;-89
2021/09/02 00:45:17;;;;;;;;;;;;;;;;;;;;;
2021/09/02 00:59:34;;;;;;;;;;;;;;;;;;;;;
2021/09/02 01:06:04;;;;;;;;;;;;;;;;;;;;;
2021/09/02 01:09:28;;;;;;;1999.90;999.90;;;14.00;99.90;;;;;;4956975;29;20384;-89
2021/09/02 01:15:58;;;;;;;1999.90;999.90;;;14.00;99.90;;;;;;4879743;29;20455;-89
2021/09/02 01:19:31;;;;;;;;;;;;;;;;;;;;;
2021/09/02 01:22:42;;;;;;;1999.90;999.90;;;14.00;99.90;;;;;;4879684;29;20422;-89
2021/09/02 01:26:13;;;;;;;;;;;;;;;;;;;;;
2021/09/02 01:29:27;;;;;;;1999.90;999.90;;;14.00;99.90;;;;;;4875620;29;20752;-89
2021/09/02 02:13:18;;;;;;;1999.90;999.90;;;14.00;99.90;;;;;;4994404;28;20406;-89
2021/09/02 02:24:24;;;;;;;;;;;;;;;;;;;;;
2021/09/02 02:41:35;;;;;;;1999.90;999.90;;;14.10;99.90;;;;;;4993235;28;20516;-90
2021/09/02 02:47:38;;;;;;;1999.90;999.90;;;14.10;99.90;;;;;;4993179;28;20488;-89
2021/09/02 02:51:16;;;;;;;1999.90;999.90;;;14.10;99.90;;;;;;4976861;28;20425;-89
2021/09/02 02:54:42;;;;;;;;;;;;;;;;;;;;;
2021/09/02 02:58:16;;;;;;;1999.90;999.90;;;14.10;99.90;;;;;;4860223;29;20460;-89
2021/09/02 03:05:29;;;;;;;1999.90;999.90;;;14.10;99.90;;;;;;4837716;29;20408;-89
2021/09/02 03:12:16;;;;;;;1999.90;999.90;;;14.10;99.90;;;;;;4818967;29;20809;-89
2021/09/02 03:22:52;;;;;;;1999.90;999.90;;;14.10;99.90;;;;;;4858240;29;20415;-89
2021/09/02 03:28:35;;;;;;;1999.90;999.90;;;14.10;99.90;;;;;;5039064;22;20982;-85
2021/09/02 03:31:54;;;;;;;1999.90;999.90;;;14.10;99.90;;;;;;5032694;28;20404;-86
2021/09/02 03:34:20;;;;;;;1999.90;999.90;;;14.10;99.90;;;;;;5034329;28;20899;-86
2021/09/02 03:36:54;;;;;;;1999.90;999.90;;;14.00;99.90;;;;;;5032762;28;20459;-86
2021/09/02 03:39:29;;;;;;;1999.90;999.90;;;14.00;99.90;;;;;;5033706;28;20668;-86
2021/09/02 03:42:12;;;;;;;1999.90;999.90;;;14.10;99.90;;;;;;5034217;28;20466;-86
2021/09/02 03:44:39;;;;;;;1999.90;999.90;;;14.10;99.90;;;;;;5034193;28;20799;-86
2021/09/02 03:47:13;;;;;;;1999.90;999.90;;;14.00;99.90;;;;;;5034221;28;20428;-86
2021/09/02 03:49:56;;;;;;;;;;;;;;;;;;;;;
2021/09/02 03:52:33;;;;;;;1999.90;999.90;;;14.10;99.90;;;;;;5032966;28;20412;-85
2021/09/02 03:54:58;;;;;;;1999.90;999.90;;;14.10;99.90;;;;;;5033967;28;20407;-86
2021/09/02 03:57:40;;;;;;;1999.90;999.90;;;14.10;99.90;;;;;;5032967;28;20459;-86
2021/09/02 04:00:11;;;;;;;1999.90;999.90;;;14.00;99.90;;;;;;5027030;28;20404;-86
2021/09/02 04:02:46;;;;;;;1999.90;999.90;;;14.00;99.90;;;;;;5034851;28;20385;-85
2021/09/02 04:05:57;;;;;;;1999.90;999.90;;;14.00;99.90;;;;;;5032882;28;20446;-86
2021/09/02 04:08:21;;;;;;;1999.90;999.90;;;14.00;99.90;;;;;;5031106;28;20412;-86
2021/09/02 04:10:49;;;;;;;1999.90;999.90;;;14.00;99.90;;;;;;5032582;28;20404;-86
2021/09/02 04:13:38;;;;;;;1999.90;999.90;;;13.90;99.90;;;;;;5032498;28;20404;-85
2021/09/02 04:16:28;;;;;;;1999.90;999.90;;;13.90;99.90;;;;;;5022550;28;20466;-86
2021/09/02 04:18:56;;;;;;;1999.90;999.90;;;13.90;99.90;;;;;;5032704;28;20416;-86
2021/09/02 04:21:36;;;;;;;1999.90;999.90;;;13.80;99.90;;;;;;5032597;28;20783;-86
2021/09/02 04:24:11;;;;;;;1999.90;999.90;;;13.80;99.90;;;;;;5032414;28;20418;-86
2021/09/02 04:26:43;;;;;;;1999.90;999.90;;;13.80;99.90;;;;;;5032863;28;20477;-85
2021/09/02 04:29:20;;;;;;;1999.90;999.90;;;13.70;99.90;;;;;;5032577;28;20926;-86
2021/09/02 04:31:57;;;;;;;1999.90;999.90;;;13.70;99.90;;;;;;5032818;28;20954;-86
2021/09/02 04:34:29;;;;;;;1999.90;999.90;;;13.70;99.90;;;;;;5031880;28;20411;-86
2021/09/02 04:36:57;;;;;;;1999.90;999.90;;;13.60;99.90;;;;;;5033432;28;20961;-85
2021/09/02 04:39:26;;;;;;;1999.90;999.90;;;13.60;99.90;;;;;;5032963;28;20775;-86
2021/09/02 04:41:52;;;;;;;1999.90;999.90;;;13.60;99.90;;;;;;5032139;28;20494;-86
2021/09/02 04:45:05;;;;;;;1999.90;999.90;;;13.60;99.90;;;;;;5032347;28;20407;-86
2021/09/02 04:47:49;;;;;;;;;;;;;;;;;;;;;
2021/09/02 04:50:22;;;;;;;1999.90;999.90;;;13.60;99.90;;;;;;5034368;28;20466;-86
2021/09/02 04:52:53;;;;;;;1999.90;999.90;;;13.50;99.90;;;;;;5034405;28;20450;-87
2021/09/02 04:55:24;;;;;;;1999.90;999.90;;;13.50;99.90;;;;;;5032627;28;20412;-87
2021/09/02 04:57:55;;;;;;;1999.90;999.90;;;13.50;99.90;;;;;;5034076;28;20440;-87
2021/09/02 05:00:24;;;;;;;1999.90;999.90;;;13.50;99.90;;;;;;5034192;28;20407;-87
2021/09/02 05:05:59;;;;;;;1999.90;999.90;;;13.40;99.90;;;;;;5033453;28;20440;-87
2021/09/02 05:08:45;;;;;;;1999.90;999.90;;;13.50;99.90;;;;;;5033423;28;20494;-87
2021/09/02 05:11:12;;;;;;;1999.90;999.90;;;13.40;99.90;;;;;;5033269;28;20421;-87
2021/09/02 05:13:44;;;;;;;1999.90;999.90;;;13.40;99.90;;;;;;5033212;28;20767;-87
2021/09/02 05:16:18;;;;;;;1999.90;999.90;;;13.40;99.90;;;;;;5034111;28;20501;-87
2021/09/02 05:18:47;;;;;;;1999.90;999.90;;;13.40;99.90;;;;;;5034601;28;20454;-87
2021/09/02 05:21:25;;;;;;;1999.90;999.90;;;13.40;99.90;;;;;;5035028;28;20887;-87
2021/09/02 05:23:54;;;;;;;1999.90;999.90;;;13.40;99.90;;;;;;5037162;28;20399;-87
2021/09/02 05:26:33;;;;;;;1999.90;999.90;;;13.30;99.90;;;;;;5037264;28;20819;-87
2021/09/02 05:29:20;;;;;;;1999.90;999.90;;;13.30;99.90;;;;;;5035380;28;20847;-87
2021/09/02 05:31:58;;;;;;;1999.90;999.90;;;13.40;99.90;;;;;;5031036;28;20400;-88
2021/09/02 05:34:32;;;;;;;1999.90;999.90;;;13.40;99.90;;;;;;5036626;28;20410;-88
2021/09/02 05:37:30;;;;;;;1999.90;999.90;;;13.40;99.90;;;;;;5037259;28;20461;-88
2021/09/02 05:40:09;;;;;;;1999.90;999.90;;;13.40;99.90;;;;;;5037076;28;20392;-87
2021/09/02 05:43:03;;;;;;;1999.90;999.90;;;13.40;99.90;;;;;;5036369;28;20498;-88
2021/09/02 05:46:14;;;;;;;1999.90;999.90;;;13.40;99.90;;;;;;5038725;28;20501;-87
2021/09/02 05:49:23;;;;;;;1999.90;999.90;;;13.40;99.90;;;;;;4979045;28;20418;-88
2021/09/02 05:52:19;;;;;;;1999.90;999.90;;;13.50;99.90;;;;;;4940949;28;20594;-88
2021/09/02 05:55:25;;;;;;;;;;;;;;;;;;;;;
2021/09/02 05:58:51;;;;;;;1999.90;999.90;;;13.60;99.90;;;;;;5040412;28;20550;-87
2021/09/02 06:01:26;;;;;;;1999.90;999.90;;;13.60;99.90;;;;;;4944261;29;20404;-87
2021/09/02 06:04:36;;;;;;;;;;;;;;;;;;;;;
2021/09/02 06:07:39;;;;;;;1999.90;999.90;;;13.60;99.90;;;;;;4954845;28;20433;-88
2021/09/02 06:10:39;;;;;;;1999.90;999.90;;;13.70;99.90;;;;;;4959852;29;20403;-88
2021/09/02 06:14:37;;;;;;;1999.90;999.90;;;13.70;99.90;;;;;;4942979;29;20419;-88
2021/09/02 06:16:48;;;;;;;;;;;;;;;;;;;;;
2021/09/02 06:19:42;;;;;;;1999.90;999.90;;;13.70;99.90;;;;;;5014067;28;20422;-88
2021/09/02 06:22:54;;;;;;;;;;;;;;;;;;;;;
2021/09/02 06:25:29;;;;;;;1999.90;999.90;;;13.70;99.90;;;;;;5035499;28;20534;-87
2021/09/02 06:28:27;;;;;;;1999.90;999.90;;;13.70;99.90;;;;;;5036811;28;20522;-88
2021/09/02 06:31:19;;;;;;;1999.90;999.90;;;13.80;99.90;;;;;;5035975;28;20899;-87
2021/09/02 06:34:14;;;;;;;1999.90;999.90;;;13.70;99.90;;;;;;5037986;28;20860;-88
2021/09/02 06:37:34;;;;;;;1999.90;999.90;;;13.60;99.90;;;;;;5034323;28;20464;-87
2021/09/02 06:46:49;;;;;;;1999.90;999.90;;;13.70;99.90;;;;;;5033619;28;20526;-87
2021/09/02 06:49:50;;;;;;;;;;;;;;;;;;;;;
2021/09/02 06:56:04;;;;;;;1999.90;999.90;;;13.70;99.90;;;;;;5004260;28;20444;-87
2021/09/02 06:58:29;;;;;;;1999.90;999.90;;;13.80;99.90;;;;;;5038706;28;20396;-87
2021/09/02 07:00:55;;;;;;;1999.90;999.90;;;13.90;99.90;;;;;;5036719;28;20954;-88
2021/09/02 07:03:21;;;;;;;1999.90;999.90;;;14.00;99.90;;;;;;5038385;28;20188;-88
2021/09/02 07:06:13;;;;;;;1999.90;999.90;;;14.00;99.90;;;;;;5036020;28;20420;-88
2021/09/02 07:09:06;;;;;;;1999.90;999.90;;;14.10;99.90;;;;;;5027427;28;20692;-88
2021/09/02 07:14:49;;;;;;;1999.90;999.90;;;14.10;99.90;;;;;;5015341;28;20404;-88
2021/09/02 07:17:20;;;;;;;1999.90;999.90;;;14.20;99.90;;;;;;5035812;28;20459;-88
2021/09/02 07:19:57;;;;;;;1999.90;999.90;;;14.30;99.90;;;;;;5036296;28;20419;-88
2021/09/02 07:22:38;;;;;;;1999.90;999.90;;;14.40;99.90;;;;;;5036316;28;20827;-88
2021/09/02 07:25:20;;;;;;;1999.90;999.90;;;14.50;99.90;;;;;;5034849;28;20815;-88
2021/09/02 07:28:17;;;;;;;1999.90;999.90;;;14.50;99.90;;;;;;5035879;28;20784;-88
2021/09/02 07:31:09;;;;;;;1999.90;999.90;;;14.50;99.90;;;;;;5029444;28;20454;-88
2021/09/02 07:34:04;;;;;;;1999.90;999.90;;;14.50;99.90;;;;;;5034487;28;20424;-87
2021/09/02 07:36:56;;;;;;;1999.90;999.90;;;14.70;99.90;;;;;;5035308;28;20470;-88
2021/09/02 07:39:24;;;;;;;1999.90;999.90;;;14.60;99.90;;;;;;5034717;28;20412;-88
2021/09/02 07:42:34;;;;;;;1999.90;999.90;;;14.80;99.90;;;;;;5036245;28;20439;-87
2021/09/02 07:45:41;;;;;;;1999.90;999.90;;;14.80;99.90;;;;;;4938749;29;20404;-88
2021/09/02 07:49:04;;;;;;;1999.90;999.90;;;14.90;99.90;;;;;;5023287;28;20490;-88
2021/09/02 07:51:53;;;;;;;1999.90;999.90;;;14.90;99.90;;;;;;5032512;28;20430;-88
2021/09/02 08:01:26;;;;;;;;;;;;;;;;;;;;;
2021/09/02 08:04:04;;;;;;;1999.90;999.90;;;14.90;99.90;;;;;;5033028;28;20500;-87
2021/09/02 08:07:14;;;;;;;1999.90;999.90;;;15.00;99.90;;;;;;5033868;28;20441;-87
2021/09/02 08:09:46;;;;;;;1999.90;999.90;;;15.20;99.90;;;;;;5033188;28;20770;-86
2021/09/02 08:12:13;;;;;;;1999.90;999.90;;;15.40;99.90;;;;;;5033356;28;20446;-87
2021/09/02 08:14:43;;;;;;;1999.90;999.90;;;15.30;99.90;;;;;;5033552;28;20971;-87
2021/09/02 08:17:31;;;;;;;1999.90;999.90;;;15.40;99.90;;;;;;5034716;28;20849;-87
2021/09/02 08:20:46;;;;;;;1999.90;999.90;;;15.30;99.90;;;;;;5035273;28;20409;-87
2021/09/02 08:24:01;;;;;;;1999.90;999.90;;;15.40;99.90;;;;;;5034138;28;20770;-87
2021/09/02 08:26:42;;;;;;;1999.90;999.90;;;15.60;99.90;;;;;;5033083;28;20432;-87
2021/09/02 08:29:20;;;;;;;1999.90;999.90;;;15.50;99.90;;;;;;5036036;28;20378;-87
2021/09/02 08:31:50;;;;;;;1999.90;999.90;;;15.60;99.90;;;;;;5034668;28;20412;-88
2021/09/02 08:34:51;;;;;;;1999.90;999.90;;;15.50;99.90;;;;;;5033986;28;20422;-88
2021/09/02 08:37:25;;;;;;;1999.90;999.90;;;15.30;99.90;;;;;;5030915;28;20540;-87
2021/09/02 08:40:12;;;;;;;1999.90;999.90;;;15.30;99.90;;;;;;5033676;28;20419;-87
2021/09/02 08:43:40;;;;;;;;;;;;;;;;;;;;;
2021/09/02 08:46:21;;;;;;;1999.90;999.90;;;15.30;99.90;;;;;;5030350;28;20799;-87
2021/09/02 08:49:48;;;;;;;1999.90;999.90;;;15.40;99.90;;;;;;5033436;28;20416;-87
2021/09/02 08:52:18;;;;;;;1999.90;999.90;;;15.40;99.90;;;;;;4957364;28;20415;-87
2021/09/02 08:54:51;;;;;;;1999.90;999.90;;;15.30;99.90;;;;;;4958274;28;20422;-88
2021/09/02 08:57:47;;;;;;;1999.90;999.90;;;15.40;99.90;;;;;;4957907;28;20464;-88
2021/09/02 09:00:17;;;;;;;1999.90;999.90;;;15.50;99.90;;;;;;4958161;28;20462;-88
2021/09/02 09:03:12;;;;;;;1999.90;999.90;;;15.60;99.90;;;;;;4957557;28;20931;-88
2021/09/02 09:06:04;;;;;;;1999.90;999.90;;;15.50;99.90;;;;;;4956218;28;20827;-87
2021/09/02 09:12:00;;;;;;;1999.90;999.90;;;15.60;99.90;;;;;;5022873;28;20916;-88
2021/09/02 09:14:55;;;;;;;1999.90;999.90;;;15.80;99.90;;;;;;5034344;28;20500;-88
2021/09/02 09:17:42;;;;;;;1999.90;999.90;;;16.00;99.90;;;;;;5031593;28;20455;-87
2021/09/02 09:21:01;;;;;;;1999.90;999.90;;;15.90;99.90;;;;;;5038452;28;20387;-87
2021/09/02 09:24:12;;;;;;;1999.90;999.90;;;16.00;99.90;;;;;;5035460;28;20908;-87
2021/09/02 09:26:38;;;;;;;1999.90;999.90;;;16.10;99.90;;;;;;5105321;22;20549;-81
2021/09/02 09:29:18;;;;;;;1999.90;999.90;;;16.20;99.90;;;;;;5036936;28;20901;-82
2021/09/02 09:31:44;;;;;;;1999.90;999.90;;;16.40;99.90;;;;;;5036751;28;20604;-82
2021/09/02 09:34:10;;;;;;;1999.90;999.90;;;16.50;99.90;;;;;;5035442;28;20404;-82
2021/09/02 09:36:38;;;;;;;1999.90;999.90;;;16.50;99.90;;;;;;5036482;28;20472;-81
2021/09/02 09:39:06;;;;;;;1999.90;999.90;;;16.60;99.90;;;;;;5036956;28;20405;-82
2021/09/02 09:41:43;;;;;;;1999.90;999.90;;;16.80;99.90;;;;;;5035545;28;20437;-82
2021/09/02 09:44:21;;;;;;;1999.90;999.90;;;17.00;99.90;;;;;;5036622;28;20724;-82
2021/09/02 09:47:05;;;;;;;1999.90;999.90;;;17.10;99.90;;;;;;5035193;28;20440;-81
2021/09/02 09:49:42;;;;;;;1999.90;999.90;;;17.30;99.90;;;;;;5036509;28;20944;-82
2021/09/02 09:52:30;;;;;;;1999.90;999.90;;;17.20;99.90;;;;;;5038481;28;20403;-83
2021/09/02 09:55:16;;;;;;;1999.90;999.90;;;17.30;99.90;;;;;;5042697;28;20392;-82
2021/09/02 09:57:42;;;;;;;1999.90;999.90;;;17.50;99.90;;;;;;5037881;28;20509;-82
2021/09/02 10:00:17;;;;;;;1999.90;999.90;;;17.50;99.90;;;;;;5037890;28;20416;-82
2021/09/02 10:02:45;;;;;;;1999.90;999.90;;;17.80;99.90;;;;;;5038392;28;20399;-82
2021/09/02 10:05:14;;;;;;;1999.90;999.90;;;18.00;99.90;;;;;;5038967;28;20495;-82
2021/09/02 10:07:42;;;;;;;1999.90;999.90;;;18.10;99.90;;;;;;5037519;28;20446;-82
2021/09/02 10:10:11;;;;;;;1999.90;999.90;;;18.30;99.90;;;;;;5038692;28;20400;-82
2021/09/02 10:12:37;;;;;;;1999.90;999.90;;;18.50;99.90;;;;;;5038317;28;20411;-82
2021/09/02 10:15:08;;;;;;;1999.90;999.90;;;18.80;99.90;;;;;;5039391;28;20795;-82
2021/09/02 10:17:36;;;;;;;1999.90;999.90;;;18.90;99.90;;;;;;5037195;28;20448;-82
2021/09/02 10:20:20;;;;;;;1999.90;999.90;;;19.10;99.90;;;;;;5038148;28;20420;-82
2021/09/02 10:22:47;;;;;;;1999.90;999.90;;;19.10;1.00;;;;;;5035747;28;20465;-82
2021/09/02 10:25:40;;;;;;;1999.90;999.90;;;19.10;1.00;;;;;;5037625;28;20402;-82
2021/09/02 10:28:08;;;;;;;1999.90;999.90;;;19.40;1.00;;;;;;5034608;28;20477;-82
2021/09/02 10:30:47;;;;;;;1999.90;999.90;;;19.60;1.00;;;;;;5037779;28;20411;-82
2021/09/02 10:33:41;;;;;;;1999.90;999.90;;;19.40;1.00;;;;;;5036196;28;20420;-82
2021/09/02 10:36:15;;;;;;;1999.90;999.90;;;19.80;1.00;;;;;;5037246;28;20435;-82
2021/09/02 10:38:45;;;;;;;1999.90;999.90;;;19.60;1.00;;;;;;5037749;28;20403;-82
2021/09/02 10:41:12;;;;;;;1999.90;999.90;;;19.70;1.00;;;;;;5036931;28;20400;-82
2021/09/02 10:43:51;;;;;;;1999.90;999.90;;;19.70;1.00;;;;;;5038683;28;20400;-82
2021/09/02 10:49:15;;;;;;;1999.90;999.90;;;20.10;1.00;;;;;;2225717;26;20551;-83
2021/09/02 10:51:54;;;;;;;1999.90;999.90;;;20.30;1.00;;;;;;5036610;28;20772;-83
2021/09/02 10:54:57;;;;;;;;;;;;;;;;;;;;;
2021/09/02 10:58:02;;;;;;;;;;;;;;;;;;;;;
2021/09/02 11:00:45;;;;;;;1999.90;999.90;;;20.70;1.00;;;;;;5037540;28;20423;-82
2021/09/02 11:04:02;;;;;;;;;;;;;;;;;;;;;
2021/09/02 11:06:54;;;;;;;1999.90;999.90;;;20.90;1.00;;;;;;5037666;28;20439;-83
2021/09/02 11:13:20;;;;;;;;;;;;;;;;;;;;;
2021/09/02 11:15:58;;;;;;;1999.90;999.90;;;21.30;1.00;;;;;;5037728;28;20489;-83
2021/09/02 11:19:08;;;;;;;1999.90;999.90;;;21.40;1.00;;;;;;5038000;28;20406;-83
2021/09/02 11:21:54;;;;;;;1999.90;999.90;;;21.90;1.00;;;;;;5034849;28;20890;-83
2021/09/02 11:24:30;;;;;;;;;;;;;;;;;;;;;
2021/09/02 11:27:16;;;;;;;1999.90;999.90;;;22.50;1.00;;;;;;5037298;28;20515;-82
2021/09/02 11:29:45;;;;;;;1999.90;999.90;;;22.80;1.00;;;;;;5038503;28;20380;-82
2021/09/02 11:35:59;;;;;;;1999.90;999.90;;;22.70;1.00;;;;;;4956243;29;20435;-83
2021/09/02 11:38:36;;;;;;;1999.90;999.90;;;22.10;1.00;;;;;;4994428;28;20431;-82
2021/09/02 11:41:20;;;;;;;1999.90;999.90;;;22.30;1.00;;;;;;5033516;28;20400;-82
2021/09/02 11:43:51;;;;;;;1999.90;999.90;;;22.10;1.00;;;;;;5035931;28;20439;-83
2021/09/02 11:46:19;;;;;;;1999.90;999.90;;;22.00;1.00;;;;;;5034296;28;20447;-81
2021/09/02 11:48:48;;;;;;;1999.90;999.90;;;21.90;1.00;;;;;;5034761;28;20409;-81
2021/09/02 11:51:51;;;;;;;1999.90;999.90;;;22.20;1.00;;;;;;5037040;28;20396;-82
2021/09/02 11:54:18;;;;;;;1999.90;999.90;;;22.50;1.00;;;;;;5026788;28;20416;-82
2021/09/02 11:56:43;;;;;;;1999.90;999.90;;;22.90;1.00;;;;;;5038548;28;20593;-83
2021/09/02 11:59:11;;;;;;;1999.90;999.90;;;22.90;1.00;;;;;;5038868;28;20420;-83
2021/09/02 12:01:48;;;;;;;1999.90;999.90;;;23.20;1.00;;;;;;5038220;28;20640;-83
2021/09/02 12:04:19;;;;;;;1999.90;999.90;;;23.20;1.00;;;;;;5039238;28;20377;-82
2021/09/02 12:06:46;;;;;;;1999.90;999.90;;;22.90;1.00;;;;;;5038590;28;20959;-83
2021/09/02 12:09:15;;;;;;;1999.90;999.90;;;22.80;1.00;;;;;;5038580;28;20464;-83
2021/09/02 12:11:41;;;;;;;1999.90;999.90;;;22.60;1.00;;;;;;5036948;28;20790;-84
2021/09/02 12:14:24;;;;;;;1999.90;999.90;;;22.90;1.00;;;;;;5039336;28;20420;-83
2021/09/02 12:17:04;;;;;;;1999.90;999.90;;;22.90;1.00;;;;;;5038882;28;20543;-82
2021/09/02 12:19:30;;;;;;;1999.90;999.90;;;23.20;1.00;;;;;;5038786;28;20396;-81
2021/09/02 12:22:12;;;;;;;1999.90;999.90;;;23.30;1.00;;;;;;5036756;28;20416;-82
2021/09/02 12:24:38;;;;;;;1999.90;999.90;;;22.90;1.00;;;;;;5037293;28;20173;-82
2021/09/02 12:27:04;;;;;;;1999.90;999.90;;;22.90;1.00;;;;;;5037448;28;20855;-82
2021/09/02 12:29:29;;;;;;;1999.90;999.90;;;23.10;1.00;;;;;;5039063;28;20169;-82
2021/09/02 12:31:56;;;;;;;1999.90;999.90;;;23.00;1.00;;;;;;5036828;28;20553;-81
2021/09/02 12:34:33;;;;;;;1999.90;999.90;;;23.20;1.00;;;;;;5037307;28;20172;-82
2021/09/02 12:37:12;;;;;;;1999.90;999.90;;;23.50;1.00;;;;;;5037199;28;20458;-82
2021/09/02 12:39:52;;;;;;;1999.90;999.90;;;23.70;1.00;;;;;;5038654;28;20770;-82
2021/09/02 12:42:26;;;;;;;1999.90;999.90;;;23.80;1.00;;;;;;5037247;28;20426;-82
2021/09/02 12:45:07;;;;;;;1999.90;999.90;;;23.90;1.00;;;;;;5037100;28;20871;-83
2021/09/02 12:47:34;;;;;;;1999.90;999.90;;;24.10;1.00;;;;;;5037062;28;20586;-82
2021/09/02 12:50:19;;;;;;;1999.90;999.90;;;24.20;1.00;;;;;;5035535;28;20404;-82
2021/09/02 12:52:46;;;;;;;1999.90;999.90;;;24.00;1.00;;;;;;5036060;28;20388;-82
2021/09/02 12:55:18;;;;;;;1999.90;999.90;;;24.00;1.00;;;;;;5040068;28;20427;-82
2021/09/02 12:57:44;;;;;;;1999.90;999.90;;;24.20;1.00;;;;;;5040283;28;20451;-82
2021/09/02 13:00:34;;;;;;;1999.90;999.90;;;24.20;1.00;;;;;;5042047;28;20451;-83
2021/09/02 13:03:07;;;;;;;1999.90;999.90;;;24.20;1.00;;;;;;5042160;28;20880;-83
2021/09/02 13:05:34;;;;;;;1999.90;999.90;;;24.40;1.00;;;;;;5040664;28;20412;-82
2021/09/02 13:08:03;;;;;;;1999.90;999.90;;;24.80;1.00;;;;;;5040473;28;20818;-82
2021/09/02 13:10:29;;;;;;;1999.90;999.90;;;25.00;1.00;;;;;;5041929;28;20413;-82
2021/09/02 13:12:57;;;;;;;1999.90;999.90;;;25.30;1.00;;;;;;5041401;28;20459;-82
2021/09/02 13:15:23;;;;;;;1999.90;999.90;;;25.00;1.00;;;;;;5041550;28;20400;-82
2021/09/02 13:17:49;;;;;;;1999.90;999.90;;;25.10;1.00;;;;;;5040568;28;20489;-82
2021/09/02 13:20:17;;;;;;;1999.90;999.90;;;25.30;1.00;;;;;;5041087;28;20489;-82
2021/09/02 13:22:44;;;;;;;1999.90;999.90;;;25.10;1.00;;;;;;5041000;28;20497;-83
2021/09/02 13:25:11;;;;;;;1999.90;999.90;;;24.80;1.00;;;;;;5040696;28;20408;-83
2021/09/02 13:27:38;;;;;;;1999.90;999.90;;;24.60;1.00;;;;;;5040867;28;20942;-82
2021/09/02 13:30:06;;;;;;;1999.90;999.90;;;24.10;1.00;;;;;;5039951;28;20491;-83
2021/09/02 13:32:31;;;;;;;1999.90;999.90;;;23.90;1.00;;;;;;5040280;28;20756;-84
2021/09/02 13:34:58;;;;;;;1999.90;999.90;;;23.70;1.00;;;;;;5039786;28;20415;-83
2021/09/02 13:37:24;;;;;;;1999.90;999.90;;;23.50;1.00;;;;;;5039272;28;20203;-83
2021/09/02 13:39:50;;;;;;;1999.90;999.90;;;23.40;1.00;;;;;;5038872;28;20919;-82
2021/09/02 13:42:17;;;;;;;1999.90;999.90;;;23.50;1.00;;;;;;5037540;28;20407;-83
2021/09/02 13:44:43;;;;;;;1999.90;999.90;;;23.60;1.00;;;;;;5036524;28;20165;-83
2021/09/02 13:47:09;;;;;;;1999.90;999.90;;;23.70;1.00;;;;;;5037934;28;20435;-84
2021/09/02 13:49:35;;;;;;;1999.90;999.90;;;24.00;1.00;;;;;;5036831;28;20177;-84
2021/09/02 13:52:00;;;;;;;1999.90;999.90;;;24.20;1.00;;;;;;5038103;28;20427;-83
2021/09/02 13:54:27;;;;;;;1999.90;999.90;;;24.50;1.00;;;;;;5038052;28;20400;-83
2021/09/02 13:56:53;;;;;;;1999.90;999.90;;;24.50;1.00;;;;;;5036429;28;20209;-83
2021/09/02 13:59:19;;;;;;;1999.90;999.90;;;24.30;1.00;;;;;;5040541;28;20411;-84
2021/09/02 14:01:45;;;;;;;1999.90;999.90;;;24.10;1.00;;;;;;5039891;28;20419;-83
2021/09/02 14:04:11;;;;;;;1999.90;999.90;;;24.10;1.00;;;;;;5038769;28;20640;-83
2021/09/02 14:06:37;;;;;;;1999.90;999.90;;;23.80;1.00;;;;;;5040150;28;20428;-83
2021/09/02 14:09:06;;;;;;;1999.90;999.90;;;24.00;1.00;;;;;;5037318;28;20675;-82
2021/09/02 14:11:32;;;;;;;1999.90;999.90;;;24.20;1.00;;;;;;5040015;28;20170;-84
2021/09/02 14:13:58;;;;;;;1999.90;999.90;;;24.40;1.00;;;;;;5039812;28;20416;-83
2021/09/02 14:16:24;;;;;;;1999.90;999.90;;;24.50;1.00;;;;;;5040229;28;20453;-83
2021/09/02 14:18:50;;;;;;;1999.90;999.90;;;24.50;1.00;;;;;;5039297;28;20224;-82
2021/09/02 14:21:17;;;;;;;1999.90;999.90;;;24.30;1.00;;;;;;5039553;28;20401;-83
2021/09/02 14:23:42;;;;;;;1999.90;999.90;;;24.30;1.00;;;;;;5040072;28;20411;-83
2021/09/02 14:26:11;;;;;;;1999.90;999.90;;;24.20;1.00;;;;;;5036354;28;20436;-82
2021/09/02 14:28:37;;;;;;;1999.90;999.90;;;24.50;1.00;;;;;;5035487;28;20174;-81
2021/09/02 14:31:03;;;;;;;1999.90;999.90;;;24.20;1.00;;;;;;5037554;28;20396;-82
2021/09/02 14:33:29;;;;;;;1999.90;999.90;;;24.20;1.00;;;;;;5039649;28;20172;-84
2021/09/02 14:35:54;;;;;;;1999.90;999.90;;;24.30;1.00;;;;;;5038929;28;20189;-84
2021/09/02 14:38:21;;;;;;;1999.90;999.90;;;24.20;1.00;;;;;;5038698;28;20177;-84
2021/09/02 14:40:47;;;;;;;1999.90;999.90;;;24.10;1.00;;;;;;5038323;28;20162;-83
2021/09/02 14:43:13;;;;;;;1999.90;999.90;;;24.00;1.00;;;;;;5036690;28;20404;-83
2021/09/02 14:45:39;;;;;;;1999.90;999.90;;;24.20;1.00;;;;;;5035762;28;20810;-83
2021/09/02 14:48:05;;;;;;;1999.90;999.90;;;24.30;1.00;;;;;;5038947;28;20188;-85
2021/09/02 14:50:31;;;;;;;1999.90;999.90;;;24.40;1.00;;;;;;5037260;28;20475;-85
2021/09/02 14:52:57;;;;;;;1999.90;999.90;;;24.30;1.00;;;;;;5040974;28;20404;-84
2021/09/02 14:55:23;;;;;;;1999.90;999.90;;;24.40;1.00;;;;;;5036947;28;20830;-84
2021/09/02 14:57:49;;;;;;;1999.90;999.90;;;24.50;1.00;;;;;;5038720;28;20185;-84
2021/09/02 15:00:16;;;;;;;1999.90;999.90;;;24.60;1.00;;;;;;5038307;28;20418;-83
2021/09/02 15:02:42;;;;;;;1999.90;999.90;;;24.50;1.00;;;;;;5039860;28;20530;-85
2021/09/02 15:05:11;;;;;;;1999.90;999.90;;;24.50;1.00;;;;;;5040271;28;20410;-84
2021/09/02 15:07:37;;;;;;;1999.90;999.90;;;24.40;1.00;;;;;;5038677;28;20428;-84
2021/09/02 15:10:04;;;;;;;1999.90;999.90;;;24.60;1.00;;;;;;5038017;28;20408;-85
2021/09/02 15:12:30;;;;;;;1999.90;999.90;;;24.70;1.00;;;;;;5041648;28;20468;-84
2021/09/02 15:14:55;;;;;;;1999.90;999.90;;;24.80;1.00;;;;;;5041313;28;20456;-86
2021/09/02 15:17:22;;;;;;;1999.90;999.90;;;24.60;1.00;;;;;;5041374;28;20194;-86
2021/09/02 15:19:48;;;;;;;1999.90;999.90;;;24.50;1.00;;;;;;5040742;28;20162;-85
2021/09/02 15:22:13;;;;;;;1999.90;999.90;;;24.60;1.00;;;;;;5038388;28;20459;-85
2021/09/02 15:24:39;;;;;;;1999.90;999.90;;;24.70;1.00;;;;;;5040433;28;20907;-85
2021/09/02 15:27:21;;;;;;;1999.90;999.90;;;24.30;1.00;;;;;;5104803;22;20224;-83
2021/09/02 15:29:58;;;;;;;1999.90;999.90;;;24.20;1.00;;;;;;5033549;28;20437;-83
2021/09/02 15:32:41;;;;;;;1999.90;999.90;;;24.10;1.00;;;;;;5034275;28;20420;-83
2021/09/02 15:35:08;;;;;;;1999.90;999.90;;;24.20;1.00;;;;;;5035084;28;20380;-83
2021/09/02 15:37:34;;;;;;;1999.90;999.90;;;24.00;1.00;;;;;;5035202;28;20505;-84
2021/09/02 15:40:03;;;;;;;1999.90;999.90;;;23.90;1.00;;;;;;5034980;28;20763;-83
2021/09/02 15:42:31;;;;;;;1999.90;999.90;;;24.30;1.00;;;;;;5033510;28;20639;-83
2021/09/02 15:44:57;;;;;;;1999.90;999.90;;;24.40;99.90;;;;;;5035595;28;20400;-83
2021/09/02 15:47:23;;;;;;;1999.90;999.90;;;24.60;99.90;;;;;;5034763;28;20562;-84
2021/09/02 15:50:08;;;;;;;1999.90;999.90;;;24.80;99.90;;;;;;5033621;28;20420;-83
2021/09/02 15:52:36;;;;;;;1999.90;999.90;;;24.80;99.90;;;;;;5034876;28;20147;-83
2021/09/02 15:55:10;;;;;;;1999.90;999.90;;;24.80;99.90;;;;;;5033988;28;20906;-83
2021/09/02 15:57:45;;;;;;;1999.90;999.90;;;25.10;99.90;;;;;;5032478;28;20510;-83
2021/09/02 16:00:19;;;;;;;1999.90;999.90;;;25.30;99.90;;;;;;5035267;28;20377;-83
2021/09/02 16:02:47;;;;;;;1999.90;999.90;;;25.60;99.90;;;;;;5033630;28;20475;-84
2021/09/02 16:05:23;;;;;;;1999.90;999.90;;;25.20;99.90;;;;;;5034782;28;20386;-86
2021/09/02 16:08:14;;;;;;;1999.90;999.90;;;25.50;99.90;;;;;;5033667;28;20432;-85
2021/09/02 16:10:43;;;;;;;1999.90;999.90;;;25.60;99.90;;;;;;5032954;28;20163;-85
2021/09/02 16:13:40;;;;;;;1999.90;999.90;;;25.90;99.90;;;;;;5034032;28;20407;-86
2021/09/02 16:16:28;;;;;;;1999.90;999.90;;;25.60;99.90;;;;;;5024650;28;20808;-86
2021/09/02 16:18:54;;;;;;;1999.90;999.90;;;25.60;99.90;;;;;;5033754;28;20445;-86
2021/09/02 16:22:03;;;;;;;1999.90;999.90;;;25.50;99.90;;;;;;5033261;28;20756;-86
2021/09/02 16:28:27;;;;;;;1999.90;999.90;;;26.50;99.90;;;;;;5058122;22;20522;-85
2021/09/02 16:34:56;;;;;;;1999.90;999.90;;;27.10;99.90;;;;;;5034676;28;20379;-85